sensor_id;sensor_type;location;lat;lon;timestamp;pressure;altitude;pressure_sealevel;temperature;humidity
4981;BME280;2507;50.392;7.482;2023-07-16T00:00:51;100286.81;;;22.86;57.58
4981;BME280;2507;50.392;7.482;2023-07-16T00:03:16;100288.78;;;22.71;58.08
4981;BME280;2507;50.392;7.482;2023-07-16T00:05:42;100303.91;;;22.64;58.23
4981;BME280;2507;50.392;7.482;2023-07-16T00:08:07;100309.47;;;22.62;58.34
4981;BME280;2507;50.392;7.482;2023-07-16T00:10:35;100309.78;;;22.53;58.86
4981;BME280;2507;50.392;7.482;2023-07-16T00:13:00;100300.38;;;22.36;59.25
4981;BME280;2507;50.392;7.482;2023-07-16T00:15:26;100310.22;;;22.35;59.84
4981;BME280;2507;50.392;7.482;2023-07-16T00:17:51;100302.91;;;22.22;59.86
4981;BME280;2507;50.392;7.482;2023-07-16T00:20:16;100307.56;;;22.14;60.49
4981;BME280;2507;50.392;7.482;2023-07-16T00:22:42;100302.41;;;22.12;60.81
4981;BME280;2507;50.392;7.482;2023-07-16T00:25:07;100331.38;;;22.09;60.81
4981;BME280;2507;50.392;7.482;2023-07-16T00:27:32;100308.25;;;22.01;61.25
4981;BME280;2507;50.392;7.482;2023-07-16T00:29:58;100308.56;;;21.92;61.48
4981;BME280;2507;50.392;7.482;2023-07-16T00:32:23;100324.59;;;21.92;61.32
4981;BME280;2507;50.392;7.482;2023-07-16T00:34:48;100315.28;;;21.88;61.71
4981;BME280;2507;50.392;7.482;2023-07-16T00:37:13;100321.41;;;21.82;62.35
4981;BME280;2507;50.392;7.482;2023-07-16T00:39:39;100320.19;;;21.84;62.19
4981;BME280;2507;50.392;7.482;2023-07-16T00:42:04;100322.75;;;21.92;61.83
4981;BME280;2507;50.392;7.482;2023-07-16T00:44:29;100327.25;;;21.92;61.49
4981;BME280;2507;50.392;7.482;2023-07-16T00:46:55;100324.78;;;21.76;62.23
4981;BME280;2507;50.392;7.482;2023-07-16T00:49:20;100333.44;;;21.92;61.87
4981;BME280;2507;50.392;7.482;2023-07-16T00:51:46;100329.94;;;21.92;62.38
4981;BME280;2507;50.392;7.482;2023-07-16T00:54:11;100329.09;;;21.91;62.13
4981;BME280;2507;50.392;7.482;2023-07-16T00:56:38;100320.63;;;21.88;62.05
4981;BME280;2507;50.392;7.482;2023-07-16T00:59:03;100329.94;;;21.92;62.20
4981;BME280;2507;50.392;7.482;2023-07-16T01:01:28;100331.31;;;21.88;62.29
4981;BME280;2507;50.392;7.482;2023-07-16T01:03:54;100330.03;;;21.84;62.53
4981;BME280;2507;50.392;7.482;2023-07-16T01:06:31;100338.22;;;21.97;62.20
4981;BME280;2507;50.392;7.482;2023-07-16T01:09:06;100342.47;;;21.91;62.09
4981;BME280;2507;50.392;7.482;2023-07-16T01:11:32;100343.09;;;21.93;62.15
4981;BME280;2507;50.392;7.482;2023-07-16T01:14:01;100345.13;;;21.91;62.14
4981;BME280;2507;50.392;7.482;2023-07-16T01:16:27;100342.66;;;21.90;62.18
4981;BME280;2507;50.392;7.482;2023-07-16T01:18:52;100343.38;;;21.84;62.33
4981;BME280;2507;50.392;7.482;2023-07-16T01:21:20;100348.91;;;21.97;61.98
4981;BME280;2507;50.392;7.482;2023-07-16T01:29:27;100351.69;;;21.60;62.84
4981;BME280;2507;50.392;7.482;2023-07-16T01:31:54;100361.56;;;21.45;63.51
4981;BME280;2507;50.392;7.482;2023-07-16T01:34:21;100356.41;;;21.28;64.19
4981;BME280;2507;50.392;7.482;2023-07-16T01:36:47;100361.63;;;21.37;63.84
4981;BME280;2507;50.392;7.482;2023-07-16T01:39:14;100372.16;;;21.23;64.52
4981;BME280;2507;50.392;7.482;2023-07-16T01:41:39;100366.34;;;21.20;64.82
4981;BME280;2507;50.392;7.482;2023-07-16T01:44:04;100367.25;;;21.12;65.01
4981;BME280;2507;50.392;7.482;2023-07-16T01:46:30;100374.41;;;21.12;64.90
4981;BME280;2507;50.392;7.482;2023-07-16T01:48:55;100379.75;;;21.12;65.05
4981;BME280;2507;50.392;7.482;2023-07-16T01:51:20;100382.63;;;21.10;65.46
4981;BME280;2507;50.392;7.482;2023-07-16T01:53:46;100385.50;;;21.23;64.87
4981;BME280;2507;50.392;7.482;2023-07-16T01:56:12;100389.25;;;21.14;64.90
4981;BME280;2507;50.392;7.482;2023-07-16T01:58:37;100379.47;;;21.07;65.44
4981;BME280;2507;50.392;7.482;2023-07-16T02:01:03;100388.88;;;20.95;66.15
4981;BME280;2507;50.392;7.482;2023-07-16T02:03:28;100379.75;;;20.89;66.29
4981;BME280;2507;50.392;7.482;2023-07-16T02:05:53;100380.22;;;20.93;66.16
4981;BME280;2507;50.392;7.482;2023-07-16T02:08:18;100388.97;;;20.87;66.38
4981;BME280;2507;50.392;7.482;2023-07-16T02:10:44;100392.53;;;20.79;66.46
4981;BME280;2507;50.392;7.482;2023-07-16T02:13:11;100393.88;;;20.75;66.50
4981;BME280;2507;50.392;7.482;2023-07-16T02:15:37;100395.06;;;20.73;66.61
4981;BME280;2507;50.392;7.482;2023-07-16T02:18:04;100398.75;;;20.72;66.97
4981;BME280;2507;50.392;7.482;2023-07-16T02:20:29;100388.69;;;20.59;67.44
4981;BME280;2507;50.392;7.482;2023-07-16T02:22:54;100398.19;;;20.62;67.65
4981;BME280;2507;50.392;7.482;2023-07-16T02:25:19;100396.31;;;20.62;67.41
4981;BME280;2507;50.392;7.482;2023-07-16T02:27:45;100401.53;;;20.56;67.66
4981;BME280;2507;50.392;7.482;2023-07-16T02:30:10;100397.69;;;20.58;67.33
4981;BME280;2507;50.392;7.482;2023-07-16T02:32:35;100403.50;;;20.62;67.13
4981;BME280;2507;50.392;7.482;2023-07-16T02:35:01;100414.41;;;20.52;67.28
4981;BME280;2507;50.392;7.482;2023-07-16T02:37:28;100409.75;;;20.46;67.33
4981;BME280;2507;50.392;7.482;2023-07-16T02:39:53;100414.59;;;20.51;67.26
4981;BME280;2507;50.392;7.482;2023-07-16T02:42:19;100416.59;;;20.49;67.42
4981;BME280;2507;50.392;7.482;2023-07-16T02:44:44;100425.66;;;20.40;67.75
4981;BME280;2507;50.392;7.482;2023-07-16T02:47:13;100432.16;;;20.37;67.67
4981;BME280;2507;50.392;7.482;2023-07-16T02:49:38;100437.47;;;20.37;67.86
4981;BME280;2507;50.392;7.482;2023-07-16T02:52:04;100434.03;;;20.28;68.14
4981;BME280;2507;50.392;7.482;2023-07-16T02:54:30;100439.59;;;20.19;68.72
4981;BME280;2507;50.392;7.482;2023-07-16T02:56:55;100438.91;;;20.25;68.67
4981;BME280;2507;50.392;7.482;2023-07-16T02:59:20;100441.72;;;20.15;68.86
4981;BME280;2507;50.392;7.482;2023-07-16T03:01:45;100446.59;;;20.20;68.35
4981;BME280;2507;50.392;7.482;2023-07-16T03:04:11;100463.91;;;20.16;68.44
4981;BME280;2507;50.392;7.482;2023-07-16T03:06:36;100458.56;;;20.16;68.31
4981;BME280;2507;50.392;7.482;2023-07-16T03:09:01;100458.22;;;20.11;68.49
4981;BME280;2507;50.392;7.482;2023-07-16T03:11:27;100470.56;;;20.12;68.06
4981;BME280;2507;50.392;7.482;2023-07-16T03:13:52;100472.25;;;20.05;68.44
4981;BME280;2507;50.392;7.482;2023-07-16T03:16:17;100463.06;;;20.07;67.49
4981;BME280;2507;50.392;7.482;2023-07-16T03:18:44;100468.28;;;20.01;68.23
4981;BME280;2507;50.392;7.482;2023-07-16T03:21:10;100481.25;;;20.04;67.85
4981;BME280;2507;50.392;7.482;2023-07-16T03:23:35;100489.41;;;20.02;67.78
4981;BME280;2507;50.392;7.482;2023-07-16T03:26:00;100485.78;;;19.95;68.10
4981;BME280;2507;50.392;7.482;2023-07-16T03:28:26;100483.28;;;19.94;67.95
4981;BME280;2507;50.392;7.482;2023-07-16T03:30:51;100487.22;;;20.06;67.39
4981;BME280;2507;50.392;7.482;2023-07-16T03:33:17;100490.25;;;20.03;67.09
4981;BME280;2507;50.392;7.482;2023-07-16T03:35:44;100488.75;;;20.00;67.24
4981;BME280;2507;50.392;7.482;2023-07-16T03:38:10;100494.09;;;20.00;67.40
4981;BME280;2507;50.392;7.482;2023-07-16T03:40:36;100498.91;;;19.97;67.47
4981;BME280;2507;50.392;7.482;2023-07-16T03:43:02;100507.22;;;20.02;67.32
4981;BME280;2507;50.392;7.482;2023-07-16T03:45:27;100504.06;;;19.98;67.64
4981;BME280;2507;50.392;7.482;2023-07-16T03:47:52;100500.25;;;19.93;67.98
4981;BME280;2507;50.392;7.482;2023-07-16T03:50:18;100514.78;;;19.90;68.16
4981;BME280;2507;50.392;7.482;2023-07-16T03:52:44;100513.25;;;19.88;68.24
4981;BME280;2507;50.392;7.482;2023-07-16T03:55:09;100512.59;;;19.86;68.16
4981;BME280;2507;50.392;7.482;2023-07-16T03:57:35;100519.78;;;19.85;68.27
4981;BME280;2507;50.392;7.482;2023-07-16T04:00:02;100521.91;;;19.90;68.30
4981;BME280;2507;50.392;7.482;2023-07-16T04:02:28;100525.59;;;19.89;68.14
4981;BME280;2507;50.392;7.482;2023-07-16T04:04:53;100528.09;;;19.90;67.99
4981;BME280;2507;50.392;7.482;2023-07-16T04:07:18;100528.72;;;20.08;67.11
4981;BME280;2507;50.392;7.482;2023-07-16T04:09:43;100536.53;;;20.10;66.95
4981;BME280;2507;50.392;7.482;2023-07-16T04:12:09;100545.03;;;20.21;66.21
4981;BME280;2507;50.392;7.482;2023-07-16T04:14:34;100546.00;;;20.20;66.40
4981;BME280;2507;50.392;7.482;2023-07-16T04:16:59;100544.81;;;20.31;65.82
4981;BME280;2507;50.392;7.482;2023-07-16T04:19:24;100536.66;;;20.33;65.75
4981;BME280;2507;50.392;7.482;2023-07-16T04:21:50;100545.16;;;20.28;65.24
4981;BME280;2507;50.392;7.482;2023-07-16T04:24:15;100545.47;;;20.33;65.39
4981;BME280;2507;50.392;7.482;2023-07-16T04:26:40;100543.91;;;20.85;63.97
4981;BME280;2507;50.392;7.482;2023-07-16T04:29:06;100548.16;;;21.62;61.78
4981;BME280;2507;50.392;7.482;2023-07-16T04:31:31;100553.25;;;22.38;58.67
4981;BME280;2507;50.392;7.482;2023-07-16T04:33:56;100551.38;;;23.24;55.51
4981;BME280;2507;50.392;7.482;2023-07-16T04:36:22;100551.41;;;23.94;53.28
4981;BME280;2507;50.392;7.482;2023-07-16T04:38:47;100556.53;;;24.58;51.79
4981;BME280;2507;50.392;7.482;2023-07-16T04:41:12;100558.63;;;25.29;49.77
4981;BME280;2507;50.392;7.482;2023-07-16T04:43:39;100557.63;;;25.82;47.79
4981;BME280;2507;50.392;7.482;2023-07-16T04:46:04;100551.56;;;26.33;46.70
4981;BME280;2507;50.392;7.482;2023-07-16T04:48:29;100551.31;;;26.91;44.50
4981;BME280;2507;50.392;7.482;2023-07-16T04:50:55;100566.41;;;27.37;44.05
4981;BME280;2507;50.392;7.482;2023-07-16T04:53:21;100562.63;;;28.00;41.51
4981;BME280;2507;50.392;7.482;2023-07-16T04:55:47;100564.59;;;28.47;40.44
4981;BME280;2507;50.392;7.482;2023-07-16T04:58:12;100570.53;;;28.74;39.87
4981;BME280;2507;50.392;7.482;2023-07-16T05:00:37;100561.72;;;28.96;39.20
4981;BME280;2507;50.392;7.482;2023-07-16T05:03:03;100558.97;;;29.14;38.91
4981;BME280;2507;50.392;7.482;2023-07-16T05:05:28;100559.50;;;29.35;37.94
4981;BME280;2507;50.392;7.482;2023-07-16T05:07:54;100568.28;;;29.71;37.20
4981;BME280;2507;50.392;7.482;2023-07-16T05:10:19;100569.94;;;29.72;36.73
4981;BME280;2507;50.392;7.482;2023-07-16T05:12:44;100579.47;;;29.75;36.84
4981;BME280;2507;50.392;7.482;2023-07-16T05:15:10;100577.72;;;29.92;36.24
4981;BME280;2507;50.392;7.482;2023-07-16T05:17:35;100580.91;;;29.89;36.21
4981;BME280;2507;50.392;7.482;2023-07-16T05:20:00;100581.50;;;30.14;36.00
4981;BME280;2507;50.392;7.482;2023-07-16T05:22:26;100587.75;;;30.26;35.51
4981;BME280;2507;50.392;7.482;2023-07-16T05:24:51;100584.06;;;29.86;36.04
4981;BME280;2507;50.392;7.482;2023-07-16T05:27:16;100589.97;;;29.94;35.78
4981;BME280;2507;50.392;7.482;2023-07-16T05:29:42;100599.97;;;30.17;35.32
4981;BME280;2507;50.392;7.482;2023-07-16T05:32:07;100600.91;;;30.57;35.23
4981;BME280;2507;50.392;7.482;2023-07-16T05:34:33;100602.06;;;30.73;34.39
4981;BME280;2507;50.392;7.482;2023-07-16T05:36:59;100615.03;;;31.10;34.12
4981;BME280;2507;50.392;7.482;2023-07-16T05:39:24;100611.19;;;31.51;33.26
4981;BME280;2507;50.392;7.482;2023-07-16T05:41:49;100612.41;;;31.16;33.37
4981;BME280;2507;50.392;7.482;2023-07-16T05:44:15;100619.72;;;30.87;33.78
4981;BME280;2507;50.392;7.482;2023-07-16T05:46:40;100605.72;;;30.55;33.58
4981;BME280;2507;50.392;7.482;2023-07-16T05:49:05;100626.25;;;31.02;33.70
4981;BME280;2507;50.392;7.482;2023-07-16T05:51:31;100622.13;;;30.49;33.58
4981;BME280;2507;50.392;7.482;2023-07-16T05:53:57;100625.03;;;30.82;33.35
4981;BME280;2507;50.392;7.482;2023-07-16T05:56:22;100625.97;;;30.76;33.15
4981;BME280;2507;50.392;7.482;2023-07-16T05:58:47;100624.06;;;30.88;32.94
4981;BME280;2507;50.392;7.482;2023-07-16T06:01:12;100624.81;;;30.60;33.72
4981;BME280;2507;50.392;7.482;2023-07-16T06:03:38;100627.91;;;31.32;32.81
4981;BME280;2507;50.392;7.482;2023-07-16T06:06:03;100629.44;;;31.28;32.20
4981;BME280;2507;50.392;7.482;2023-07-16T06:08:28;100621.41;;;30.53;33.20
4981;BME280;2507;50.392;7.482;2023-07-16T06:10:54;100637.25;;;29.39;34.68
4981;BME280;2507;50.392;7.482;2023-07-16T06:13:19;100651.00;;;29.38;34.09
4981;BME280;2507;50.392;7.482;2023-07-16T06:15:46;100640.00;;;29.03;34.96
4981;BME280;2507;50.392;7.482;2023-07-16T06:18:12;100643.31;;;29.23;34.62
4981;BME280;2507;50.392;7.482;2023-07-16T06:20:37;100645.25;;;29.75;33.56
4981;BME280;2507;50.392;7.482;2023-07-16T06:23:02;100650.88;;;30.38;33.22
4981;BME280;2507;50.392;7.482;2023-07-16T06:25:27;100646.91;;;31.03;32.15
4981;BME280;2507;50.392;7.482;2023-07-16T06:27:53;100643.88;;;31.17;32.10
4981;BME280;2507;50.392;7.482;2023-07-16T06:30:18;100635.63;;;31.68;31.70
4981;BME280;2507;50.392;7.482;2023-07-16T06:32:43;100633.91;;;31.34;31.09
4981;BME280;2507;50.392;7.482;2023-07-16T06:35:09;100640.75;;;31.64;31.28
4981;BME280;2507;50.392;7.482;2023-07-16T06:37:34;100633.13;;;31.78;30.92
4981;BME280;2507;50.392;7.482;2023-07-16T06:39:59;100640.25;;;31.51;31.07
4981;BME280;2507;50.392;7.482;2023-07-16T06:42:25;100639.91;;;31.64;31.04
4981;BME280;2507;50.392;7.482;2023-07-16T06:44:50;100640.81;;;30.85;30.92
4981;BME280;2507;50.392;7.482;2023-07-16T06:47:16;100638.72;;;30.52;31.36
4981;BME280;2507;50.392;7.482;2023-07-16T06:49:41;100640.94;;;29.97;32.07
4981;BME280;2507;50.392;7.482;2023-07-16T06:52:06;100641.69;;;30.51;31.48
4981;BME280;2507;50.392;7.482;2023-07-16T06:54:32;100638.22;;;30.90;31.20
4981;BME280;2507;50.392;7.482;2023-07-16T06:56:57;100645.69;;;31.84;30.15
4981;BME280;2507;50.392;7.482;2023-07-16T06:59:23;100643.81;;;32.18;30.05
4981;BME280;2507;50.392;7.482;2023-07-16T07:01:48;100643.00;;;32.00;29.37
4981;BME280;2507;50.392;7.482;2023-07-16T07:04:13;100640.50;;;31.82;28.75
4981;BME280;2507;50.392;7.482;2023-07-16T07:06:38;100645.06;;;32.10;29.64
4981;BME280;2507;50.392;7.482;2023-07-16T07:09:04;100639.44;;;31.10;29.84
4981;BME280;2507;50.392;7.482;2023-07-16T07:11:31;100629.47;;;30.99;30.19
4981;BME280;2507;50.392;7.482;2023-07-16T07:13:56;100633.75;;;30.72;30.18
4981;BME280;2507;50.392;7.482;2023-07-16T07:16:22;100633.34;;;30.80;30.23
4981;BME280;2507;50.392;7.482;2023-07-16T07:18:48;100633.13;;;30.93;30.51
4981;BME280;2507;50.392;7.482;2023-07-16T07:21:13;100630.63;;;31.60;29.83
4981;BME280;2507;50.392;7.482;2023-07-16T07:23:38;100636.59;;;32.61;28.68
4981;BME280;2507;50.392;7.482;2023-07-16T07:26:04;100636.66;;;32.88;28.67
4981;BME280;2507;50.392;7.482;2023-07-16T07:28:29;100637.50;;;33.10;28.00
4981;BME280;2507;50.392;7.482;2023-07-16T07:30:54;100634.47;;;32.85;28.84
4981;BME280;2507;50.392;7.482;2023-07-16T07:33:20;100639.13;;;32.89;28.29
4981;BME280;2507;50.392;7.482;2023-07-16T07:35:45;100634.19;;;33.30;27.70
4981;BME280;2507;50.392;7.482;2023-07-16T07:38:10;100626.13;;;33.66;27.37
4981;BME280;2507;50.392;7.482;2023-07-16T07:40:36;100636.34;;;33.81;27.43
4981;BME280;2507;50.392;7.482;2023-07-16T07:43:01;100640.25;;;33.37;26.48
4981;BME280;2507;50.392;7.482;2023-07-16T07:45:26;100647.66;;;33.68;26.42
4981;BME280;2507;50.392;7.482;2023-07-16T07:47:51;100646.88;;;32.04;28.25
4981;BME280;2507;50.392;7.482;2023-07-16T07:50:17;100634.84;;;30.60;29.65
4981;BME280;2507;50.392;7.482;2023-07-16T07:52:42;100630.75;;;30.34;30.06
4981;BME280;2507;50.392;7.482;2023-07-16T07:55:08;100632.13;;;31.11;29.38
4981;BME280;2507;50.392;7.482;2023-07-16T07:57:33;100647.38;;;31.57;28.57
4981;BME280;2507;50.392;7.482;2023-07-16T07:59:58;100639.63;;;32.10;28.30
4981;BME280;2507;50.392;7.482;2023-07-16T08:02:25;100656.44;;;32.24;28.00
4981;BME280;2507;50.392;7.482;2023-07-16T08:04:54;100648.28;;;31.90;28.21
4981;BME280;2507;50.392;7.482;2023-07-16T08:07:20;100641.00;;;31.63;28.51
4981;BME280;2507;50.392;7.482;2023-07-16T08:09:46;100651.28;;;31.33;28.07
4981;BME280;2507;50.392;7.482;2023-07-16T08:12:12;100640.00;;;30.61;28.75
4981;BME280;2507;50.392;7.482;2023-07-16T08:14:37;100636.72;;;30.59;29.04
4981;BME280;2507;50.392;7.482;2023-07-16T08:17:03;100640.41;;;31.61;28.40
4981;BME280;2507;50.392;7.482;2023-07-16T08:19:28;100645.44;;;32.52;27.68
4981;BME280;2507;50.392;7.482;2023-07-16T08:21:53;100649.31;;;32.56;26.41
4981;BME280;2507;50.392;7.482;2023-07-16T08:24:18;100632.88;;;32.29;26.91
4981;BME280;2507;50.392;7.482;2023-07-16T08:26:44;100640.44;;;31.77;27.38
4981;BME280;2507;50.392;7.482;2023-07-16T08:29:09;100641.56;;;31.65;27.39
4981;BME280;2507;50.392;7.482;2023-07-16T08:31:35;100647.69;;;31.88;27.29
4981;BME280;2507;50.392;7.482;2023-07-16T08:34:00;100632.66;;;31.69;26.55
4981;BME280;2507;50.392;7.482;2023-07-16T08:36:25;100633.97;;;31.22;27.20
4981;BME280;2507;50.392;7.482;2023-07-16T08:38:51;100638.00;;;30.22;28.22
4981;BME280;2507;50.392;7.482;2023-07-16T08:41:16;100641.31;;;30.12;28.33
4981;BME280;2507;50.392;7.482;2023-07-16T08:43:42;100642.13;;;30.59;28.27
4981;BME280;2507;50.392;7.482;2023-07-16T08:46:08;100637.06;;;30.63;28.04
4981;BME280;2507;50.392;7.482;2023-07-16T08:48:33;100639.53;;;30.06;27.93
4981;BME280;2507;50.392;7.482;2023-07-16T08:51:01;100654.34;;;30.04;28.80
4981;BME280;2507;50.392;7.482;2023-07-16T08:53:27;100650.34;;;30.76;27.98
4981;BME280;2507;50.392;7.482;2023-07-16T08:55:52;100643.66;;;30.55;27.48
4981;BME280;2507;50.392;7.482;2023-07-16T08:58:18;100647.41;;;30.89;27.73
4981;BME280;2507;50.392;7.482;2023-07-16T09:00:44;100655.88;;;31.44;26.59
4981;BME280;2507;50.392;7.482;2023-07-16T09:03:13;100652.59;;;31.58;26.67
4981;BME280;2507;50.392;7.482;2023-07-16T09:05:39;100661.75;;;31.85;26.11
4981;BME280;2507;50.392;7.482;2023-07-16T09:08:05;100658.81;;;32.20;26.00
4981;BME280;2507;50.392;7.482;2023-07-16T09:10:31;100667.19;;;31.41;26.66
4981;BME280;2507;50.392;7.482;2023-07-16T09:12:58;100651.84;;;30.44;27.05
4981;BME280;2507;50.392;7.482;2023-07-16T09:15:24;100663.38;;;28.97;28.63
4981;BME280;2507;50.392;7.482;2023-07-16T09:17:49;100658.81;;;28.62;29.13
4981;BME280;2507;50.392;7.482;2023-07-16T09:20:18;100663.56;;;28.17;30.34
4981;BME280;2507;50.392;7.482;2023-07-16T09:22:43;100672.00;;;28.02;29.99
4981;BME280;2507;50.392;7.482;2023-07-16T09:25:09;100656.38;;;27.80;30.30
4981;BME280;2507;50.392;7.482;2023-07-16T09:27:35;100665.63;;;27.21;30.45
4981;BME280;2507;50.392;7.482;2023-07-16T09:30:00;100668.69;;;26.81;31.93
4981;BME280;2507;50.392;7.482;2023-07-16T09:32:34;100667.06;;;26.54;31.89
4981;BME280;2507;50.392;7.482;2023-07-16T09:35:00;100668.75;;;26.35;31.46
4981;BME280;2507;50.392;7.482;2023-07-16T09:37:26;100660.69;;;26.29;31.37
4981;BME280;2507;50.392;7.482;2023-07-16T09:39:53;100667.31;;;26.00;32.28
4981;BME280;2507;50.392;7.482;2023-07-16T09:42:19;100669.78;;;26.01;32.19
4981;BME280;2507;50.392;7.482;2023-07-16T09:44:45;100663.78;;;25.99;32.50
4981;BME280;2507;50.392;7.482;2023-07-16T09:47:11;100662.97;;;26.25;33.24
4981;BME280;2507;50.392;7.482;2023-07-16T09:49:36;100660.81;;;26.79;32.14
4981;BME280;2507;50.392;7.482;2023-07-16T09:52:02;100661.94;;;27.09;31.59
4981;BME280;2507;50.392;7.482;2023-07-16T09:54:32;100655.47;;;27.17;31.37
4981;BME280;2507;50.392;7.482;2023-07-16T09:56:58;100660.72;;;27.05;32.05
4981;BME280;2507;50.392;7.482;2023-07-16T09:59:27;100651.94;;;27.16;31.13
4981;BME280;2507;50.392;7.482;2023-07-16T10:01:55;100659.91;;;27.05;31.05
4981;BME280;2507;50.392;7.482;2023-07-16T10:04:21;100671.16;;;26.89;32.10
4981;BME280;2507;50.392;7.482;2023-07-16T10:06:57;100664.09;;;26.88;31.95
4981;BME280;2507;50.392;7.482;2023-07-16T10:09:50;100667.81;;;27.00;31.45
4981;BME280;2507;50.392;7.482;2023-07-16T10:12:18;100663.31;;;27.32;31.71
4981;BME280;2507;50.392;7.482;2023-07-16T10:14:48;100665.09;;;27.00;31.48
4981;BME280;2507;50.392;7.482;2023-07-16T10:17:19;100649.91;;;27.12;31.26
4981;BME280;2507;50.392;7.482;2023-07-16T10:19:48;100663.25;;;26.94;31.40
4981;BME280;2507;50.392;7.482;2023-07-16T10:22:13;100661.25;;;26.76;31.03
4981;BME280;2507;50.392;7.482;2023-07-16T10:24:39;100659.56;;;26.75;31.67
4981;BME280;2507;50.392;7.482;2023-07-16T10:27:04;100651.63;;;27.00;31.80
4981;BME280;2507;50.392;7.482;2023-07-16T10:29:29;100663.09;;;27.33;31.52
4981;BME280;2507;50.392;7.482;2023-07-16T10:31:56;100652.41;;;27.51;31.28
4981;BME280;2507;50.392;7.482;2023-07-16T10:34:22;100647.44;;;27.10;31.66
4981;BME280;2507;50.392;7.482;2023-07-16T10:36:50;100664.84;;;27.14;31.63
4981;BME280;2507;50.392;7.482;2023-07-16T10:39:15;100670.50;;;27.44;31.16
4981;BME280;2507;50.392;7.482;2023-07-16T10:41:41;100648.06;;;27.50;31.41
4981;BME280;2507;50.392;7.482;2023-07-16T10:44:13;100662.84;;;27.41;31.98
4981;BME280;2507;50.392;7.482;2023-07-16T10:46:41;100667.41;;;27.41;31.86
4981;BME280;2507;50.392;7.482;2023-07-16T10:49:07;100660.38;;;27.40;31.39
4981;BME280;2507;50.392;7.482;2023-07-16T10:51:32;100675.16;;;27.31;31.04
4981;BME280;2507;50.392;7.482;2023-07-16T10:53:58;100660.28;;;27.08;31.08
4981;BME280;2507;50.392;7.482;2023-07-16T10:56:23;100658.00;;;27.12;31.05
4981;BME280;2507;50.392;7.482;2023-07-16T10:58:49;100669.31;;;27.34;31.06
4981;BME280;2507;50.392;7.482;2023-07-16T11:01:15;100673.84;;;27.40;31.23
4981;BME280;2507;50.392;7.482;2023-07-16T11:03:40;100665.94;;;27.45;30.81
4981;BME280;2507;50.392;7.482;2023-07-16T11:06:06;100662.47;;;27.38;30.83
4981;BME280;2507;50.392;7.482;2023-07-16T11:08:32;100664.41;;;27.11;29.97
4981;BME280;2507;50.392;7.482;2023-07-16T11:10:58;100665.16;;;26.87;30.30
4981;BME280;2507;50.392;7.482;2023-07-16T11:13:28;100657.69;;;27.33;30.44
4981;BME280;2507;50.392;7.482;2023-07-16T11:15:53;100669.25;;;27.78;29.86
4981;BME280;2507;50.392;7.482;2023-07-16T11:18:22;100657.41;;;27.48;29.57
4981;BME280;2507;50.392;7.482;2023-07-16T11:20:50;100657.88;;;27.69;30.09
4981;BME280;2507;50.392;7.482;2023-07-16T11:23:16;100654.00;;;27.90;29.87
4981;BME280;2507;50.392;7.482;2023-07-16T11:25:46;100664.03;;;28.07;29.73
4981;BME280;2507;50.392;7.482;2023-07-16T11:28:11;100658.22;;;28.10;29.80
4981;BME280;2507;50.392;7.482;2023-07-16T11:30:36;100666.88;;;27.88;29.19
4981;BME280;2507;50.392;7.482;2023-07-16T11:33:02;100657.47;;;27.72;30.20
4981;BME280;2507;50.392;7.482;2023-07-16T11:35:27;100653.69;;;27.80;29.70
4981;BME280;2507;50.392;7.482;2023-07-16T11:37:54;100654.44;;;27.87;29.40
4981;BME280;2507;50.392;7.482;2023-07-16T11:40:20;100666.56;;;27.78;29.91
4981;BME280;2507;50.392;7.482;2023-07-16T11:42:45;100660.56;;;27.76;30.46
4981;BME280;2507;50.392;7.482;2023-07-16T11:45:16;100659.72;;;27.75;30.03
4981;BME280;2507;50.392;7.482;2023-07-16T11:47:42;100667.78;;;27.82;29.74
4981;BME280;2507;50.392;7.482;2023-07-16T11:50:07;100652.59;;;27.56;29.64
4981;BME280;2507;50.392;7.482;2023-07-16T11:52:33;100647.00;;;27.51;29.80
4981;BME280;2507;50.392;7.482;2023-07-16T11:54:59;100663.03;;;27.77;29.60
4981;BME280;2507;50.392;7.482;2023-07-16T11:57:29;100661.16;;;27.78;30.00
4981;BME280;2507;50.392;7.482;2023-07-16T11:59:55;100659.69;;;27.51;30.11
4981;BME280;2507;50.392;7.482;2023-07-16T12:02:20;100660.72;;;27.81;30.53
4981;BME280;2507;50.392;7.482;2023-07-16T12:04:46;100655.56;;;28.29;30.06
4981;BME280;2507;50.392;7.482;2023-07-16T12:07:11;100662.88;;;28.46;29.71
4981;BME280;2507;50.392;7.482;2023-07-16T12:09:37;100654.31;;;27.75;29.54
4981;BME280;2507;50.392;7.482;2023-07-16T12:12:02;100654.09;;;27.46;29.97
4981;BME280;2507;50.392;7.482;2023-07-16T12:14:28;100661.41;;;27.70;29.46
4981;BME280;2507;50.392;7.482;2023-07-16T12:16:53;100657.28;;;27.98;29.27
4981;BME280;2507;50.392;7.482;2023-07-16T12:19:18;100671.34;;;28.07;29.38
4981;BME280;2507;50.392;7.482;2023-07-16T12:21:44;100652.78;;;27.92;29.02
4981;BME280;2507;50.392;7.482;2023-07-16T12:24:09;100647.38;;;27.86;29.03
4981;BME280;2507;50.392;7.482;2023-07-16T12:26:35;100655.63;;;28.22;29.19
4981;BME280;2507;50.392;7.482;2023-07-16T12:29:01;100651.91;;;27.92;29.16
4981;BME280;2507;50.392;7.482;2023-07-16T12:31:31;100663.16;;;27.89;29.46
4981;BME280;2507;50.392;7.482;2023-07-16T12:33:57;100655.56;;;28.04;29.63
4981;BME280;2507;50.392;7.482;2023-07-16T12:36:23;100661.69;;;28.17;29.21
4981;BME280;2507;50.392;7.482;2023-07-16T12:38:48;100651.41;;;27.77;29.92
4981;BME280;2507;50.392;7.482;2023-07-16T12:41:13;100644.91;;;27.84;29.76
4981;BME280;2507;50.392;7.482;2023-07-16T12:43:40;100651.13;;;27.85;30.06
4981;BME280;2507;50.392;7.482;2023-07-16T12:46:05;100657.88;;;28.00;29.77
4981;BME280;2507;50.392;7.482;2023-07-16T12:48:31;100664.56;;;27.98;29.51
4981;BME280;2507;50.392;7.482;2023-07-16T12:50:57;100659.31;;;28.28;29.38
4981;BME280;2507;50.392;7.482;2023-07-16T12:53:23;100660.34;;;28.69;28.80
4981;BME280;2507;50.392;7.482;2023-07-16T12:55:49;100653.59;;;28.78;28.48
4981;BME280;2507;50.392;7.482;2023-07-16T12:58:14;100653.16;;;29.17;27.87
4981;BME280;2507;50.392;7.482;2023-07-16T13:00:39;100649.34;;;29.37;28.14
4981;BME280;2507;50.392;7.482;2023-07-16T13:03:05;100652.81;;;29.44;27.51
4981;BME280;2507;50.392;7.482;2023-07-16T13:05:30;100658.38;;;29.31;27.42
4981;BME280;2507;50.392;7.482;2023-07-16T13:07:55;100667.88;;;29.22;27.69